Time;durP1;ratioP1;P1;durP2;ratioP2;P2;SDS_P1;SDS_P2;PMS_P1;PMS_P2;Temp;Humidity;BMP_temperature;BMP_pressure;BME280_temperature;BME280_humidity;BME280_pressure;Samples;Min_cycle;Max_cycle;Signal;HPM_P1;HPM_P2
2023/08/18 00:01:21;;;;;;;14.43;10.10;;;26.10;99.90;;;;;;4953442;28;20054;-82
2023/08/18 00:03:56;;;;;;;14.32;9.57;;;26.10;99.90;;;;;;4965976;28;20717;-81
2023/08/18 00:06:28;;;;;;;15.02;9.95;;;26.10;99.90;;;;;;4948281;29;20440;-80
2023/08/18 00:09:09;;;;;;;13.77;10.00;;;26.10;99.90;;;;;;4907568;29;20043;-81
2023/08/18 00:11:39;;;;;;;13.35;9.82;;;26.20;99.90;;;;;;4965629;29;20043;-81
2023/08/18 00:14:21;;;;;;;14.32;10.15;;;26.10;99.90;;;;;;4937026;29;20055;-80
2023/08/18 00:17:03;;;;;;;13.77;9.32;;;25.90;99.90;;;;;;4948797;29;20073;-80
2023/08/18 00:19:47;;;;;;;16.00;10.02;;;26.00;99.90;;;;;;4930340;29;20476;-81
2023/08/18 00:22:33;;;;;;;13.43;10.07;;;26.10;99.90;;;;;;4934176;29;20039;-81
2023/08/18 00:25:17;;;;;;;15.40;9.45;;;25.80;99.90;;;;;;4967054;29;20124;-80
2023/08/18 00:28:01;;;;;;;15.45;9.63;;;25.90;99.90;;;;;;4949865;29;20393;-80
2023/08/18 00:30:43;;;;;;;15.63;10.25;;;26.00;99.90;;;;;;4942027;29;20047;-81
2023/08/18 00:33:24;;;;;;;15.95;10.23;;;26.10;99.90;;;;;;4932067;29;20058;-81
2023/08/18 00:36:08;;;;;;;21.27;11.85;;;26.10;99.90;;;;;;4925216;29;20085;-83
2023/08/18 00:38:49;;;;;;;17.88;12.88;;;26.00;99.90;;;;;;4934767;29;20044;-79
2023/08/18 00:41:46;;;;;;;14.57;9.70;;;26.10;99.90;;;;;;4959024;29;20023;-83
2023/08/18 00:44:27;;;;;;;13.95;9.82;;;26.10;99.90;;;;;;4954488;29;20051;-83
2023/08/18 00:47:12;;;;;;;13.57;8.90;;;26.10;99.90;;;;;;4946614;29;20114;-83
2023/08/18 00:49:57;;;;;;;14.20;9.35;;;26.00;99.90;;;;;;4920174;29;20512;-81
2023/08/18 00:55:28;;;;;;;15.80;10.63;;;25.90;99.90;;;;;;5409535;23;20582;-82
2023/08/18 00:58:11;;;;;;;12.88;10.07;;;25.50;99.90;;;;;;4929484;29;20058;-81
2023/08/18 01:00:52;;;;;;;15.50;10.32;;;25.30;99.90;;;;;;4933790;29;20519;-80
2023/08/18 01:03:20;;;;;;;15.18;10.38;;;25.10;99.90;;;;;;4930717;29;20397;-80
2023/08/18 01:06:01;;;;;;;14.00;11.13;;;25.20;99.90;;;;;;4907687;29;20043;-78
2023/08/18 01:08:29;;;;;;;16.13;11.23;;;25.10;99.90;;;;;;4918434;29;20036;-80
2023/08/18 01:11:21;;;;;;;17.10;10.40;;;25.20;99.90;;;;;;4948309;29;20047;-80
2023/08/18 01:14:02;;;;;;;19.15;10.63;;;25.00;99.90;;;;;;4927750;29;20139;-78
2023/08/18 01:16:54;;;;;;;13.75;9.98;;;24.80;99.90;;;;;;4916065;29;20064;-79
2023/08/18 01:19:28;;;;;;;14.93;10.82;;;24.70;99.90;;;;;;4910133;29;20036;-81
2023/08/18 01:22:02;;;;;;;167.05;105.65;;;24.80;99.90;;;;;;4921199;29;20044;-78
2023/08/18 01:24:30;;;;;;;183.25;118.50;;;24.80;99.90;;;;;;4905403;29;20052;-78
2023/08/18 01:27:37;;;;;;;37.05;29.00;;;24.80;99.90;;;;;;4904642;29;20048;-80
2023/08/18 01:30:06;;;;;;;19.13;14.13;;;24.70;99.90;;;;;;4906616;29;20107;-79
2023/08/18 01:33:04;;;;;;;18.65;13.77;;;24.70;99.90;;;;;;4921190;29;20047;-80
2023/08/18 01:35:34;;;;;;;18.58;12.18;;;24.60;99.90;;;;;;4895730;29;20048;-77
2023/08/18 01:38:04;;;;;;;19.15;11.23;;;24.60;99.90;;;;;;4913230;29;20041;-79
2023/08/18 01:40:51;;;;;;;17.02;11.13;;;24.70;99.90;;;;;;4917851;29;20040;-76
2023/08/18 01:43:18;;;;;;;16.00;10.65;;;24.60;99.90;;;;;;4916435;29;20048;-78
2023/08/18 01:45:47;;;;;;;16.98;10.75;;;24.60;99.90;;;;;;4917981;29;20109;-77
2023/08/18 01:48:15;;;;;;;194.85;114.65;;;24.40;99.90;;;;;;4918886;29;20194;-78
2023/08/18 01:50:42;;;;;;;222.77;144.35;;;24.40;99.90;;;;;;4918450;29;20448;-79
2023/08/18 01:53:10;;;;;;;51.83;38.47;;;24.40;99.90;;;;;;4922688;29;20064;-81
2023/08/18 01:55:51;;;;;;;20.50;14.23;;;24.50;99.90;;;;;;4901016;29;20052;-80
2023/08/18 01:58:21;;;;;;;16.23;12.52;;;24.40;99.90;;;;;;4923313;29;20032;-79
2023/08/18 02:00:56;;;;;;;15.93;11.43;;;24.30;99.90;;;;;;4891542;29;20048;-80
2023/08/18 02:03:25;;;;;;;17.58;11.70;;;24.40;99.90;;;;;;4936230;29;20067;-82
2023/08/18 02:05:58;;;;;;;16.13;10.93;;;24.40;99.90;;;;;;4935496;29;20123;-80
2023/08/18 02:08:26;;;;;;;18.00;11.88;;;24.30;99.90;;;;;;4906425;29;20473;-80
2023/08/18 02:11:01;;;;;;;17.20;11.77;;;24.30;99.90;;;;;;4920472;29;20104;-79
2023/08/18 02:13:29;;;;;;;15.82;10.88;;;24.40;99.90;;;;;;4903750;29;20080;-80
2023/08/18 02:15:57;;;;;;;14.38;10.18;;;24.40;99.90;;;;;;4890178;29;20127;-80
2023/08/18 02:18:32;;;;;;;17.35;10.32;;;24.20;99.90;;;;;;4935195;29;20043;-81
2023/08/18 02:21:02;;;;;;;15.75;9.73;;;24.30;99.90;;;;;;4920846;29;20036;-80
2023/08/18 02:23:29;;;;;;;14.95;9.65;;;24.20;99.90;;;;;;4917013;29;20048;-79
2023/08/18 02:26:00;;;;;;;14.90;10.85;;;23.90;99.90;;;;;;4917361;29;20045;-79
2023/08/18 02:28:28;;;;;;;15.15;10.20;;;23.90;99.90;;;;;;4917730;29;21412;-80
2023/08/18 02:31:00;;;;;;;14.93;9.85;;;23.80;99.90;;;;;;4925009;29;20051;-81
2023/08/18 02:33:28;;;;;;;;;;;23.80;99.90;;;;;;4924007;29;21406;-79
2023/08/18 02:35:56;;;;;;;14.63;10.70;;;23.50;99.90;;;;;;4925907;29;19955;-78
2023/08/18 02:38:23;;;;;;;17.40;10.70;;;23.50;99.90;;;;;;4928816;29;20044;-80
2023/08/18 02:40:52;;;;;;;14.93;10.25;;;23.60;99.90;;;;;;4898391;29;20097;-80
2023/08/18 02:43:23;;;;;;;14.82;10.82;;;23.70;99.90;;;;;;4930376;29;20103;-80
2023/08/18 02:45:56;;;;;;;17.65;10.57;;;23.40;99.90;;;;;;4909106;29;20474;-79
2023/08/18 02:48:27;;;;;;;14.68;10.30;;;23.50;99.90;;;;;;4906367;29;20036;-79
2023/08/18 02:51:05;;;;;;;15.07;10.38;;;23.50;99.90;;;;;;4925159;29;20044;-77
2023/08/18 02:53:34;;;;;;;14.13;10.30;;;23.60;99.90;;;;;;4893233;29;20040;-78
2023/08/18 02:56:02;;;;;;;14.40;9.98;;;23.70;99.90;;;;;;4926078;29;20084;-79
2023/08/18 02:58:32;;;;;;;14.27;9.90;;;23.70;99.90;;;;;;4926493;29;20036;-81
2023/08/18 03:01:05;;;;;;;12.73;9.70;;;23.70;99.90;;;;;;4914843;29;20047;-80
2023/08/18 03:03:35;;;;;;;12.90;9.45;;;23.80;99.90;;;;;;4936095;29;20283;-80
2023/08/18 03:06:07;;;;;;;16.25;10.15;;;23.80;99.90;;;;;;4925927;29;20044;-80
2023/08/18 03:08:36;;;;;;;14.35;10.35;;;23.80;99.90;;;;;;4926360;29;20064;-80
2023/08/18 03:11:05;;;;;;;17.17;10.20;;;23.70;99.90;;;;;;4915169;29;20060;-78
2023/08/18 03:13:33;;;;;;;13.65;10.18;;;23.70;99.90;;;;;;4907594;29;20147;-79
2023/08/18 03:16:17;;;;;;;14.10;9.73;;;23.70;99.90;;;;;;4893730;29;20036;-80
2023/08/18 03:18:58;;;;;;;13.90;10.20;;;23.70;99.90;;;;;;4892985;29;21373;-80
2023/08/18 03:21:27;;;;;;;14.25;10.05;;;23.70;99.90;;;;;;4907477;29;20079;-78
2023/08/18 03:23:54;;;;;;;12.65;9.50;;;23.70;99.90;;;;;;4924757;29;20044;-79
2023/08/18 03:26:22;;;;;;;16.08;10.13;;;23.60;99.90;;;;;;4907955;29;20036;-78
2023/08/18 03:28:52;;;;;;;15.20;10.05;;;23.70;99.90;;;;;;4906281;29;20048;-80
2023/08/18 03:31:19;;;;;;;;;;;23.60;99.90;;;;;;4908265;29;20130;-77
2023/08/18 03:33:47;;;;;;;14.73;9.60;;;23.70;99.90;;;;;;4922451;29;20027;-78
2023/08/18 03:36:14;;;;;;;12.75;9.48;;;23.70;99.90;;;;;;4923290;29;20388;-80
2023/08/18 03:38:42;;;;;;;14.73;9.55;;;23.70;99.90;;;;;;4927918;29;20096;-80
2023/08/18 03:41:09;;;;;;;15.95;10.40;;;23.70;99.90;;;;;;4923433;29;20417;-80
2023/08/18 03:43:37;;;;;;;15.20;10.80;;;23.60;99.90;;;;;;4906981;29;20155;-80
2023/08/18 03:46:23;;;;;;;15.57;10.27;;;23.50;99.90;;;;;;4908151;29;20054;-80
2023/08/18 03:48:50;;;;;;;13.85;9.70;;;23.70;99.90;;;;;;4920807;29;20040;-78
2023/08/18 03:51:17;;;;;;;14.40;10.45;;;23.70;99.90;;;;;;4921148;29;20082;-79
2023/08/18 03:53:45;;;;;;;18.70;11.48;;;23.70;99.90;;;;;;4923324;29;20068;-78
2023/08/18 03:56:14;;;;;;;16.02;10.23;;;23.80;99.90;;;;;;4907209;29;20068;-80
2023/08/18 03:58:42;;;;;;;17.23;10.55;;;23.80;99.90;;;;;;4923519;29;20083;-79
2023/08/18 04:01:10;;;;;;;15.18;10.65;;;23.70;99.90;;;;;;4904589;29;20118;-79
2023/08/18 04:03:41;;;;;;;17.45;10.45;;;23.80;99.90;;;;;;4895857;29;20043;-78
2023/08/18 04:06:12;;;;;;;12.55;9.77;;;23.70;99.90;;;;;;4926197;29;20100;-79
2023/08/18 04:08:43;;;;;;;15.05;9.82;;;23.70;99.90;;;;;;4905703;29;20111;-78
2023/08/18 04:11:12;;;;;;;15.30;10.57;;;23.70;99.90;;;;;;4923722;29;20036;-79
2023/08/18 04:13:42;;;;;;;14.07;10.15;;;23.80;99.90;;;;;;4921505;29;20040;-79
2023/08/18 04:16:09;;;;;;;15.10;10.50;;;23.70;99.90;;;;;;4920811;29;20152;-78
2023/08/18 04:18:37;;;;;;;21.45;9.75;;;23.70;99.90;;;;;;4887390;29;20041;-78
2023/08/18 04:21:05;;;;;;;16.73;10.07;;;23.70;99.90;;;;;;4925679;29;20041;-77
2023/08/18 04:23:32;;;;;;;15.48;10.93;;;23.70;99.90;;;;;;4923116;29;20048;-79
2023/08/18 04:26:01;;;;;;;12.32;9.68;;;23.80;99.90;;;;;;4907923;29;20533;-78
2023/08/18 04:28:33;;;;;;;12.52;9.15;;;23.70;99.90;;;;;;4922706;29;20048;-77
2023/08/18 04:31:00;;;;;;;15.70;9.88;;;23.80;99.90;;;;;;4907081;29;20044;-77
2023/08/18 04:33:27;;;;;;;16.83;10.57;;;23.70;99.90;;;;;;4920883;29;20043;-79
2023/08/18 04:35:54;;;;;;;19.75;10.73;;;23.80;99.90;;;;;;4919863;29;20123;-79
2023/08/18 04:38:22;;;;;;;16.33;10.38;;;23.80;99.90;;;;;;4922087;29;20038;-78
2023/08/18 04:41:00;;;;;;;17.70;10.75;;;23.80;99.90;;;;;;4922082;29;20036;-79
2023/08/18 04:43:29;;;;;;;16.55;11.82;;;23.80;99.90;;;;;;4894608;29;20497;-77
2023/08/18 04:45:57;;;;;;;23.27;12.10;;;23.80;99.90;;;;;;4922007;29;20192;-78
2023/08/18 04:48:39;;;;;;;25.27;12.93;;;23.70;99.90;;;;;;4921569;29;20118;-78
2023/08/18 04:51:07;;;;;;;18.60;12.63;;;23.70;99.90;;;;;;4922319;29;20044;-78
2023/08/18 04:53:34;;;;;;;21.15;12.93;;;23.90;99.90;;;;;;4923424;29;20032;-78
2023/08/18 04:56:03;;;;;;;21.67;13.23;;;24.00;99.90;;;;;;4921985;29;20055;-80
2023/08/18 04:58:32;;;;;;;19.52;12.73;;;24.00;99.90;;;;;;4906773;29;20099;-79
2023/08/18 05:01:00;;;;;;;17.52;12.52;;;23.80;99.90;;;;;;4922664;29;20033;-80
2023/08/18 05:03:28;;;;;;;18.33;12.02;;;23.80;99.90;;;;;;4921316;29;20434;-78
2023/08/18 05:06:03;;;;;;;16.65;12.52;;;24.00;99.90;;;;;;4910032;29;20425;-77
2023/08/18 05:08:45;;;;;;;18.63;12.88;;;23.80;99.90;;;;;;4905257;29;20059;-80
2023/08/18 05:11:13;;;;;;;17.33;12.15;;;23.80;99.90;;;;;;4907954;29;20770;-79
2023/08/18 05:13:42;;;;;;;19.33;12.43;;;23.80;99.90;;;;;;4904966;29;20512;-79
2023/08/18 05:16:10;;;;;;;21.00;11.80;;;23.80;99.90;;;;;;4926336;29;20375;-79
2023/08/18 05:18:51;;;;;;;19.33;12.07;;;23.80;99.90;;;;;;4912152;29;20044;-80
2023/08/18 05:21:23;;;;;;;18.58;12.27;;;23.80;99.90;;;;;;4927061;29;20055;-82
2023/08/18 05:23:52;;;;;;;22.52;12.55;;;23.90;99.90;;;;;;4913079;29;20043;-81
2023/08/18 05:26:33;;;;;;;21.17;11.95;;;24.20;99.90;;;;;;4895004;29;20066;-81
2023/08/18 05:29:01;;;;;;;16.40;11.35;;;24.30;99.90;;;;;;4913504;29;20111;-79
2023/08/18 05:31:37;;;;;;;19.23;12.52;;;24.20;99.90;;;;;;4907620;29;20043;-79
2023/08/18 05:34:05;;;;;;;21.00;12.52;;;24.20;99.90;;;;;;4921874;29;20048;-78
2023/08/18 05:36:33;;;;;;;17.98;13.48;;;24.10;99.90;;;;;;4906529;29;20630;-79
2023/08/18 05:39:14;;;;;;;17.17;11.00;;;24.00;99.90;;;;;;4914853;29;20040;-80
2023/08/18 05:41:44;;;;;;;14.98;11.57;;;24.10;99.90;;;;;;4924445;29;20045;-79
2023/08/18 05:44:12;;;;;;;16.25;12.10;;;24.20;99.90;;;;;;4923893;29;20047;-78
2023/08/18 05:46:40;;;;;;;18.98;12.10;;;24.30;99.90;;;;;;4890477;29;20047;-79
2023/08/18 05:49:08;;;;;;;19.02;13.05;;;24.40;99.90;;;;;;4912613;29;20055;-78
2023/08/18 05:51:37;;;;;;;23.50;11.93;;;24.50;99.90;;;;;;4906039;29;20456;-80
2023/08/18 05:54:05;;;;;;;17.85;11.05;;;24.50;99.90;;;;;;4907940;29;20549;-78
2023/08/18 05:56:33;;;;;;;16.13;11.43;;;24.60;99.90;;;;;;4922842;29;20218;-80
2023/08/18 05:59:00;;;;;;;22.67;12.82;;;24.60;99.90;;;;;;4922389;29;20044;-80
2023/08/18 06:01:28;;;;;;;19.85;11.18;;;24.60;99.90;;;;;;4921076;29;20033;-78
2023/08/18 06:03:56;;;;;;;16.42;11.98;;;24.70;99.90;;;;;;4924604;29;20047;-78
2023/08/18 06:06:24;;;;;;;19.30;12.02;;;24.60;99.90;;;;;;4897457;29;20541;-79
2023/08/18 06:09:05;;;;;;;19.10;12.40;;;24.60;99.90;;;;;;4925072;29;20097;-78
2023/08/18 06:11:41;;;;;;;22.27;13.47;;;24.60;99.90;;;;;;4927959;29;20036;-80
2023/08/18 06:14:10;;;;;;;15.93;11.20;;;24.60;99.90;;;;;;4911304;29;20048;-80
2023/08/18 06:16:40;;;;;;;18.40;12.25;;;24.80;99.90;;;;;;4912218;29;20081;-79
2023/08/18 06:19:12;;;;;;;16.45;11.88;;;24.90;99.90;;;;;;4925586;29;20051;-80
2023/08/18 06:21:41;;;;;;;17.95;11.00;;;25.00;99.90;;;;;;4909672;29;20047;-79
2023/08/18 06:24:08;;;;;;;17.65;11.32;;;25.20;99.90;;;;;;4921019;29;20068;-79
2023/08/18 06:26:36;;;;;;;16.73;11.63;;;25.30;99.90;;;;;;4903735;29;20048;-79
2023/08/18 06:29:03;;;;;;;17.55;11.65;;;25.30;99.90;;;;;;4926337;29;20075;-79
2023/08/18 06:31:32;;;;;;;16.83;11.45;;;25.30;99.90;;;;;;4930792;29;20071;-82
2023/08/18 06:33:59;;;;;;;18.48;11.63;;;25.30;99.90;;;;;;4927944;29;20040;-81
2023/08/18 06:36:27;;;;;;;15.43;10.98;;;25.40;99.90;;;;;;4932680;29;20032;-81
2023/08/18 06:39:03;;;;;;;15.45;11.45;;;25.30;99.90;;;;;;4929232;29;20050;-82
2023/08/18 06:41:44;;;;;;;19.23;11.25;;;25.50;99.90;;;;;;4910423;29;20103;-80
2023/08/18 06:44:12;;;;;;;17.05;11.00;;;25.60;99.90;;;;;;4911783;29;20136;-81
2023/08/18 06:46:39;;;;;;;16.65;11.57;;;25.60;99.90;;;;;;4928076;29;20136;-81
2023/08/18 06:49:07;;;;;;;15.68;11.20;;;25.70;99.90;;;;;;4926110;29;20075;-79
2023/08/18 06:51:34;;;;;;;17.25;11.32;;;25.70;99.90;;;;;;4907284;29;20406;-80
2023/08/18 06:54:01;;;;;;;19.15;12.35;;;25.70;99.90;;;;;;4911000;29;20048;-81
2023/08/18 06:56:30;;;;;;;17.48;11.27;;;25.60;99.90;;;;;;4903004;29;20064;-81
2023/08/18 06:59:12;;;;;;;21.48;11.80;;;25.60;99.90;;;;;;4917896;29;20040;-79
2023/08/18 07:01:41;;;;;;;20.95;11.43;;;25.70;99.90;;;;;;4906226;29;20048;-79
2023/08/18 07:04:10;;;;;;;14.68;10.93;;;25.70;99.90;;;;;;4927839;29;20359;-79
2023/08/18 07:06:51;;;;;;;18.10;12.13;;;25.80;99.90;;;;;;4914957;29;20076;-80
2023/08/18 07:09:19;;;;;;;18.00;11.70;;;25.90;99.90;;;;;;4928839;29;20130;-80
2023/08/18 07:11:48;;;;;;;24.85;13.68;;;25.90;99.90;;;;;;4918242;29;20043;-79
2023/08/18 07:14:15;;;;;;;17.80;12.05;;;26.00;99.90;;;;;;4909332;29;20044;-79
2023/08/18 07:16:43;;;;;;;19.42;11.05;;;26.00;99.90;;;;;;4881527;29;20051;-81
2023/08/18 07:19:12;;;;;;;12.80;10.35;;;26.00;99.90;;;;;;4933339;29;20032;-82
2023/08/18 07:21:53;;;;;;;14.73;10.98;;;26.20;99.90;;;;;;4907791;29;20056;-77
2023/08/18 07:24:26;;;;;;;20.30;12.32;;;26.20;99.90;;;;;;4897148;29;20421;-79
2023/08/18 07:26:56;;;;;;;30.27;19.70;;;26.20;99.90;;;;;;4920026;29;20048;-80
2023/08/18 07:29:39;;;;;;;86.95;49.88;;;26.20;99.90;;;;;;4904044;29;20040;-79
2023/08/18 07:32:22;;;;;;;34.58;24.33;;;26.30;99.90;;;;;;4908245;29;20064;-80
2023/08/18 07:35:08;;;;;;;23.15;15.05;;;26.30;99.90;;;;;;4913060;29;20508;-78
2023/08/18 07:37:38;;;;;;;41.85;30.08;;;26.30;99.90;;;;;;4926711;29;20482;-82
2023/08/18 07:40:23;;;;;;;34.38;24.83;;;26.30;99.90;;;;;;4938540;29;20048;-78
2023/08/18 07:43:06;;;;;;;26.88;18.92;;;26.30;99.90;;;;;;4933535;29;20047;-77
2023/08/18 07:45:50;;;;;;;19.98;13.18;;;26.30;99.90;;;;;;4928565;29;20103;-80
2023/08/18 07:48:22;;;;;;;19.08;12.60;;;26.40;99.90;;;;;;4902600;29;20108;-79
2023/08/18 07:51:03;;;;;;;17.33;12.23;;;26.50;99.90;;;;;;4907735;29;20070;-80
2023/08/18 07:53:32;;;;;;;17.38;12.82;;;26.60;99.90;;;;;;4926717;29;20055;-79
2023/08/18 07:56:14;;;;;;;16.85;12.05;;;26.60;99.90;;;;;;4931327;29;20051;-79
2023/08/18 07:58:58;;;;;;;16.30;12.15;;;26.70;99.90;;;;;;4942526;29;20043;-79
2023/08/18 08:01:30;;;;;;;18.88;11.98;;;26.80;99.90;;;;;;4926823;29;20055;-79
2023/08/18 08:04:01;;;;;;;16.95;11.20;;;26.80;99.90;;;;;;4936398;29;20054;-77
2023/08/18 08:06:33;;;;;;;15.60;10.48;;;26.90;99.90;;;;;;4948078;29;20465;-80
2023/08/18 08:09:10;;;;;;;19.25;10.40;;;26.90;99.90;;;;;;4938582;29;20059;-80
2023/08/18 08:11:48;;;;;;;18.13;10.80;;;27.00;99.90;;;;;;4931495;29;20044;-79
2023/08/18 08:14:22;;;;;;;17.75;13.07;;;26.90;99.90;;;;;;4933428;29;20337;-79
2023/08/18 08:16:49;;;;;;;31.98;23.00;;;27.00;99.90;;;;;;4946136;29;20135;-79
2023/08/18 08:19:19;;;;;;;69.47;49.72;;;27.20;99.90;;;;;;4945027;29;20048;-82
2023/08/18 08:21:46;;;;;;;65.82;47.15;;;27.20;99.90;;;;;;4940647;29;20121;-80
2023/08/18 08:24:15;;;;;;;56.17;38.58;;;27.40;99.90;;;;;;4947119;29;20052;-79
2023/08/18 08:26:46;;;;;;;26.25;19.27;;;27.50;99.90;;;;;;4940687;29;20051;-82
2023/08/18 08:29:29;;;;;;;16.48;11.35;;;27.50;99.90;;;;;;4953827;29;20048;-85
2023/08/18 08:31:57;;;;;;;12.27;10.02;;;27.70;99.90;;;;;;4943181;29;20062;-84
2023/08/18 08:34:24;;;;;;;14.48;9.63;;;27.70;99.90;;;;;;4956110;29;20040;-85
2023/08/18 08:36:58;;;;;;;14.05;9.18;;;27.60;99.90;;;;;;4953739;29;20039;-82
2023/08/18 08:39:26;;;;;;;13.02;10.15;;;27.50;99.90;;;;;;4953381;29;20047;-83
2023/08/18 08:41:54;;;;;;;14.07;9.98;;;27.50;99.90;;;;;;4947151;29;20056;-78
2023/08/18 08:44:31;;;;;;;15.32;11.00;;;27.60;99.90;;;;;;4957987;29;20107;-83
2023/08/18 08:47:05;;;;;;;14.77;10.93;;;27.70;99.90;;;;;;4948973;29;20468;-82
2023/08/18 08:49:36;;;;;;;16.27;10.32;;;27.70;99.90;;;;;;4933293;29;20481;-85
2023/08/18 08:52:13;;;;;;;16.35;10.18;;;27.80;99.90;;;;;;4956702;29;20453;-81
2023/08/18 08:54:55;;;;;;;13.23;9.70;;;28.00;99.90;;;;;;4949956;28;20058;-83
2023/08/18 08:57:34;;;;;;;16.98;10.13;;;28.20;99.90;;;;;;4939040;29;20036;-84
2023/08/18 09:00:08;;;;;;;12.60;9.43;;;28.40;99.90;;;;;;4934970;29;20036;-80
2023/08/18 09:02:45;;;;;;;14.43;9.85;;;28.40;99.90;;;;;;4916843;29;20051;-83
2023/08/18 09:05:32;;;;;;;12.60;9.57;;;28.50;99.90;;;;;;4903346;29;20052;-83
2023/08/18 09:08:02;;;;;;;14.75;7.88;;;28.60;99.90;;;;;;4935725;29;20040;-82
2023/08/18 09:10:30;;;;;;;13.65;8.75;;;28.70;99.90;;;;;;4933095;29;20069;-82
2023/08/18 09:13:10;;;;;;;15.07;9.45;;;28.80;99.90;;;;;;4933824;29;20040;-85
2023/08/18 09:15:45;;;;;;;13.38;8.43;;;28.80;99.90;;;;;;4935418;29;20423;-84
2023/08/18 09:18:20;;;;;;;13.25;8.23;;;29.00;99.90;;;;;;4933206;29;20055;-85
2023/08/18 09:20:56;;;;;;;10.80;7.93;;;29.10;99.90;;;;;;4915249;29;20044;-83
2023/08/18 09:23:27;;;;;;;10.73;8.25;;;29.00;99.90;;;;;;4908130;29;20076;-84
2023/08/18 09:26:10;;;;;;;10.70;7.47;;;29.10;99.90;;;;;;4925827;29;20055;-85
2023/08/18 09:29:11;;;;;;;9.30;7.05;;;29.20;98.40;;;;;;4938121;29;20031;-83
2023/08/18 09:32:07;;;;;;;11.35;7.20;;;29.40;97.20;;;;;;4921546;29;20023;-82
2023/08/18 09:34:44;;;;;;;10.23;7.32;;;29.50;96.70;;;;;;4931358;29;20409;-81
2023/08/18 09:37:30;;;;;;;10.48;7.63;;;29.70;96.90;;;;;;4931029;29;20032;-82
2023/08/18 09:40:05;;;;;;;11.50;7.35;;;29.80;96.60;;;;;;4922313;29;20029;-82
2023/08/18 09:42:38;;;;;;;9.32;7.40;;;30.00;96.20;;;;;;4910254;29;20041;-84
2023/08/18 09:45:13;;;;;;;44.88;30.17;;;30.00;95.80;;;;;;4918273;29;20058;-85
2023/08/18 09:47:42;;;;;;;33.35;24.95;;;30.00;96.30;;;;;;4906087;29;20111;-85
2023/08/18 09:50:14;;;;;;;;;;;30.10;96.20;;;;;;4933269;29;20040;-83
2023/08/18 09:52:59;;;;;;;23.33;16.50;;;29.90;97.20;;;;;;4920703;29;19983;-84
2023/08/18 09:55:41;;;;;;;20.92;13.30;;;30.00;97.10;;;;;;4933729;29;20056;-83
2023/08/18 09:58:24;;;;;;;13.77;10.10;;;29.90;97.40;;;;;;4932226;29;20044;-85
2023/08/18 10:00:57;;;;;;;14.85;8.30;;;30.10;96.60;;;;;;4921044;29;20044;-81
2023/08/18 10:03:30;;;;;;;23.02;19.27;;;30.40;95.80;;;;;;4886039;29;20080;-86
2023/08/18 10:06:18;;;;;;;40.95;34.35;;;30.50;96.00;;;;;;4915187;29;20036;-85
2023/08/18 10:08:47;;;;;;;22.48;16.92;;;30.30;95.60;;;;;;4928639;29;20502;-82
2023/08/18 10:11:17;;;;;;;57.90;46.97;;;30.40;95.90;;;;;;4907877;29;20075;-79
2023/08/18 10:13:47;;;;;;;34.65;21.52;;;30.50;94.90;;;;;;4909446;29;20050;-79
2023/08/18 10:16:29;;;;;;;32.60;26.73;;;30.50;95.30;;;;;;4917497;29;20044;-79
2023/08/18 10:19:17;;;;;;;96.25;73.65;;;30.40;95.20;;;;;;4922696;29;20104;-80
2023/08/18 10:22:06;;;;;;;33.83;26.00;;;30.60;94.90;;;;;;4919341;29;20100;-80
2023/08/18 10:24:39;;;;;;;22.13;16.48;;;30.50;94.60;;;;;;4931691;29;20060;-82
2023/08/18 10:27:10;;;;;;;17.58;12.55;;;30.30;94.40;;;;;;4927437;29;20062;-82
2023/08/18 10:30:34;;;;;;;58.78;21.85;;;30.60;94.30;;;;;;4930400;29;20035;-79
2023/08/18 10:34:24;;;;;;;34.78;14.48;;;30.50;94.20;;;;;;5197306;23;20063;-79
2023/08/18 10:38:30;;;;;;;19.63;9.70;;;30.50;94.10;;;;;;5239865;23;20090;-78
2023/08/18 10:42:32;;;;;;;15.18;8.05;;;30.60;93.20;;;;;;5018220;28;20049;-80
2023/08/18 10:49:34;;;;;;;28.95;21.13;;;30.70;92.10;;;;;;5982380;23;20038;-80
2023/08/18 10:53:37;;;;;;;33.05;25.80;;;31.00;92.20;;;;;;4945323;28;20132;-81
2023/08/18 10:57:17;;;;;;;21.17;14.63;;;31.00;91.50;;;;;;4948334;28;20100;-80
2023/08/18 11:01:08;;;;;;;12.63;8.38;;;31.30;90.90;;;;;;4907069;29;20060;-84
2023/08/18 11:22:33;;;;;;;44.40;14.80;;;31.60;85.90;;;;;;5136323;23;20082;-81
2023/08/18 11:26:14;;;;;;;37.20;15.82;;;31.80;86.20;;;;;;4984240;28;20027;-80
2023/08/18 11:34:32;;;;;;;12.43;6.18;;;31.30;87.60;;;;;;4935457;29;20021;-81
2023/08/18 11:38:38;;;;;;;33.13;24.70;;;32.00;85.40;;;;;;4935259;29;20048;-81
2023/08/18 12:11:34;;;;;;;9.18;5.68;;;33.30;76.70;;;;;;5090702;23;20039;-83
2023/08/18 12:14:03;;;;;;;9.05;5.35;;;33.50;76.60;;;;;;4969356;28;20048;-81
2023/08/18 12:16:37;;;;;;;9.20;5.57;;;33.60;75.70;;;;;;4989952;28;20039;-83
2023/08/18 12:19:05;;;;;;;9.63;5.85;;;33.50;75.10;;;;;;4982595;28;20066;-83
2023/08/18 12:21:38;;;;;;;9.60;5.63;;;33.50;76.60;;;;;;4971251;28;20113;-83
2023/08/18 12:24:09;;;;;;;8.55;5.47;;;33.60;74.50;;;;;;4972172;28;20047;-82
2023/08/18 12:26:46;;;;;;;6.88;4.88;;;33.80;74.90;;;;;;4990630;28;20042;-83
2023/08/18 12:29:32;;;;;;;8.00;4.82;;;33.90;73.10;;;;;;4960573;28;20070;-85
2023/08/18 12:32:13;;;;;;;9.65;4.95;;;33.90;72.40;;;;;;4971375;28;20043;-81
2023/08/18 12:34:42;;;;;;;9.23;5.70;;;34.20;72.80;;;;;;4983999;28;20026;-83
2023/08/18 12:37:22;;;;;;;9.70;6.03;;;34.30;71.30;;;;;;4978378;28;20054;-83
2023/08/18 12:39:50;;;;;;;7.25;4.88;;;34.20;70.20;;;;;;4967140;28;20047;-81
2023/08/18 12:42:30;;;;;;;9.10;5.07;;;34.00;70.10;;;;;;4972767;28;20046;-83
2023/08/18 12:45:16;;;;;;;6.43;5.10;;;34.10;70.00;;;;;;4973628;28;20110;-83
2023/08/18 12:48:25;;;;;;;8.32;5.03;;;34.10;71.00;;;;;;4983359;28;20049;-83
2023/08/18 12:51:18;;;;;;;7.15;5.13;;;34.00;70.20;;;;;;4954567;28;20031;-82
2023/08/18 12:53:54;;;;;;;8.82;4.97;;;33.90;69.90;;;;;;4968678;28;20039;-83
2023/08/18 12:56:30;;;;;;;6.45;4.85;;;34.00;69.60;;;;;;4967332;28;20034;-80
2023/08/18 12:59:02;;;;;;;7.15;4.82;;;34.40;69.40;;;;;;4978745;28;20053;-81
2023/08/18 13:01:30;;;;;;;13.07;8.50;;;34.50;68.70;;;;;;4965496;28;20045;-81
2023/08/18 13:03:57;;;;;;;38.88;32.28;;;34.30;69.00;;;;;;4971565;28;20027;-79
2023/08/18 13:06:27;;;;;;;20.45;15.70;;;33.90;67.40;;;;;;4958689;28;20062;-80
2023/08/18 13:08:55;;;;;;;14.60;11.52;;;33.80;70.40;;;;;;4966181;28;20045;-80
2023/08/18 13:11:32;;;;;;;9.57;6.25;;;34.10;68.20;;;;;;4966849;28;20082;-81
2023/08/18 13:14:04;;;;;;;7.07;5.30;;;34.10;68.20;;;;;;4969180;28;20090;-81
2023/08/18 13:16:34;;;;;;;8.18;5.50;;;34.20;68.30;;;;;;4970260;28;20058;-81
2023/08/18 13:19:03;;;;;;;8.25;5.28;;;34.20;68.10;;;;;;4987626;28;20041;-81
2023/08/18 13:21:47;;;;;;;7.43;5.32;;;34.40;68.00;;;;;;4955255;28;20052;-81
2023/08/18 13:24:41;;;;;;;8.95;5.65;;;34.40;68.60;;;;;;4960195;28;20069;-82
2023/08/18 13:27:11;;;;;;;7.97;5.53;;;34.40;68.00;;;;;;4965093;28;20042;-80
2023/08/18 13:29:52;;;;;;;7.68;4.68;;;34.50;66.50;;;;;;4981472;28;20097;-81
2023/08/18 13:32:20;;;;;;;9.15;5.82;;;34.50;66.50;;;;;;4965263;28;20035;-82
2023/08/18 13:34:47;;;;;;;9.68;5.50;;;34.80;66.10;;;;;;4980697;28;20038;-79
2023/08/18 13:37:24;;;;;;;6.70;4.75;;;34.90;65.70;;;;;;4962479;28;20043;-80
2023/08/18 13:39:54;;;;;;;10.30;5.50;;;34.60;64.80;;;;;;4983537;28;20511;-83
2023/08/18 13:42:23;;;;;;;9.10;5.88;;;34.70;65.00;;;;;;4935081;28;20043;-82
2023/08/18 13:44:52;;;;;;;;;;;34.60;64.80;;;;;;4970184;28;20047;-80
2023/08/18 13:47:20;;;;;;;9.80;5.85;;;34.90;64.80;;;;;;4984420;28;20383;-82
2023/08/18 13:49:50;;;;;;;7.53;5.70;;;35.20;65.80;;;;;;4983794;28;20121;-82
2023/08/18 13:52:21;;;;;;;10.05;5.53;;;35.20;64.60;;;;;;4968294;28;20488;-82
2023/08/18 13:54:51;;;;;;;8.43;6.20;;;35.30;64.40;;;;;;4980099;28;20035;-82
2023/08/18 13:57:37;;;;;;;11.02;5.85;;;35.10;64.90;;;;;;4980109;28;20031;-82
2023/08/18 14:00:10;;;;;;;9.02;5.85;;;34.70;65.10;;;;;;4937603;28;20035;-80
2023/08/18 14:02:39;;;;;;;10.60;6.78;;;34.60;65.00;;;;;;4969818;28;20357;-84
2023/08/18 14:05:31;;;;;;;7.68;5.88;;;34.60;64.60;;;;;;4972518;28;20055;-83
2023/08/18 14:08:03;;;;;;;7.63;5.65;;;34.80;64.60;;;;;;4973475;28;20042;-83
2023/08/18 14:10:34;;;;;;;9.43;6.28;;;35.00;64.10;;;;;;4960205;28;20057;-84
2023/08/18 14:13:05;;;;;;;10.05;6.07;;;35.00;65.60;;;;;;4965309;28;20106;-81
2023/08/18 14:15:44;;;;;;;10.70;6.28;;;35.00;65.70;;;;;;4969226;28;20038;-82
2023/08/18 14:18:59;;;;;;;10.63;5.90;;;35.20;66.30;;;;;;4983079;28;20050;-79
2023/08/18 14:21:52;;;;;;;7.82;5.68;;;35.40;65.60;;;;;;4966632;29;20042;-83